sensor_id;sensor_type;location;lat;lon;timestamp;P1;durP1;ratioP1;P2;durP2;ratioP2
36573;SDS011;22578;42.668;23.232;2023-07-31T00:00:14;1.30;;;1.20;;
36573;SDS011;22578;42.668;23.232;2023-07-31T00:03:34;1.20;;;1.10;;
36573;SDS011;22578;42.668;23.232;2023-07-31T00:06:55;1.50;;;1.40;;
36573;SDS011;22578;42.668;23.232;2023-07-31T00:10:15;1.33;;;1.23;;
36573;SDS011;22578;42.668;23.232;2023-07-31T00:13:36;1.55;;;1.45;;
36573;SDS011;22578;42.668;23.232;2023-07-31T00:16:56;1.20;;;1.10;;
36573;SDS011;22578;42.668;23.232;2023-07-31T00:20:17;1.40;;;1.30;;
36573;SDS011;22578;42.668;23.232;2023-07-31T00:23:37;1.33;;;1.25;;
36573;SDS011;22578;42.668;23.232;2023-07-31T00:26:57;0.93;;;0.93;;
36573;SDS011;22578;42.668;23.232;2023-07-31T00:30:18;1.30;;;1.27;;
36573;SDS011;22578;42.668;23.232;2023-07-31T00:33:38;1.52;;;1.40;;
36573;SDS011;22578;42.668;23.232;2023-07-31T00:36:59;1.02;;;1.02;;
36573;SDS011;22578;42.668;23.232;2023-07-31T00:40:19;1.33;;;1.25;;
36573;SDS011;22578;42.668;23.232;2023-07-31T00:43:40;1.98;;;1.80;;
36573;SDS011;22578;42.668;23.232;2023-07-31T00:47:00;1.30;;;1.20;;
36573;SDS011;22578;42.668;23.232;2023-07-31T00:50:22;1.60;;;1.30;;
36573;SDS011;22578;42.668;23.232;2023-07-31T00:53:44;1.85;;;1.75;;
36573;SDS011;22578;42.668;23.232;2023-07-31T00:57:05;2.10;;;1.77;;
36573;SDS011;22578;42.668;23.232;2023-07-31T01:00:27;2.25;;;1.73;;
36573;SDS011;22578;42.668;23.232;2023-07-31T01:03:48;2.45;;;1.85;;
36573;SDS011;22578;42.668;23.232;2023-07-31T01:07:18;2.20;;;1.85;;
36573;SDS011;22578;42.668;23.232;2023-07-31T01:10:49;3.33;;;2.58;;
36573;SDS011;22578;42.668;23.232;2023-07-31T01:14:12;3.15;;;2.00;;
36573;SDS011;22578;42.668;23.232;2023-07-31T01:17:32;2.75;;;2.38;;
36573;SDS011;22578;42.668;23.232;2023-07-31T01:20:58;3.40;;;3.10;;
36573;SDS011;22578;42.668;23.232;2023-07-31T01:32:11;4.07;;;2.78;;
36573;SDS011;22578;42.668;23.232;2023-07-31T01:35:33;4.38;;;2.60;;
36573;SDS011;22578;42.668;23.232;2023-07-31T01:38:57;3.15;;;2.75;;
36573;SDS011;22578;42.668;23.232;2023-07-31T01:42:19;4.47;;;2.83;;
36573;SDS011;22578;42.668;23.232;2023-07-31T01:45:40;3.78;;;3.10;;
36573;SDS011;22578;42.668;23.232;2023-07-31T01:49:00;5.78;;;3.50;;
36573;SDS011;22578;42.668;23.232;2023-07-31T01:52:20;4.57;;;2.80;;
36573;SDS011;22578;42.668;23.232;2023-07-31T01:55:41;3.53;;;2.75;;
36573;SDS011;22578;42.668;23.232;2023-07-31T01:59:01;2.58;;;2.38;;
36573;SDS011;22578;42.668;23.232;2023-07-31T02:02:22;4.15;;;2.60;;
36573;SDS011;22578;42.668;23.232;2023-07-31T02:05:49;4.22;;;2.95;;
36573;SDS011;22578;42.668;23.232;2023-07-31T02:09:09;3.55;;;2.88;;
36573;SDS011;22578;42.668;23.232;2023-07-31T02:12:30;4.40;;;3.83;;
36573;SDS011;22578;42.668;23.232;2023-07-31T02:15:52;2.42;;;2.22;;
36573;SDS011;22578;42.668;23.232;2023-07-31T02:19:12;4.05;;;3.65;;
36573;SDS011;22578;42.668;23.232;2023-07-31T02:22:33;2.97;;;2.70;;
36573;SDS011;22578;42.668;23.232;2023-07-31T02:25:53;7.80;;;3.28;;
36573;SDS011;22578;42.668;23.232;2023-07-31T02:29:13;5.22;;;3.78;;
36573;SDS011;22578;42.668;23.232;2023-07-31T02:32:34;5.28;;;3.20;;
36573;SDS011;22578;42.668;23.232;2023-07-31T02:35:54;3.13;;;2.53;;
36573;SDS011;22578;42.668;23.232;2023-07-31T02:39:15;4.82;;;3.42;;
36573;SDS011;22578;42.668;23.232;2023-07-31T02:42:35;5.18;;;3.83;;
36573;SDS011;22578;42.668;23.232;2023-07-31T02:45:55;3.53;;;3.13;;
36573;SDS011;22578;42.668;23.232;2023-07-31T02:49:16;4.22;;;3.28;;
36573;SDS011;22578;42.668;23.232;2023-07-31T02:52:36;5.07;;;3.60;;
36573;SDS011;22578;42.668;23.232;2023-07-31T02:55:57;2.88;;;2.53;;
36573;SDS011;22578;42.668;23.232;2023-07-31T02:59:17;4.00;;;3.00;;
36573;SDS011;22578;42.668;23.232;2023-07-31T03:02:38;4.03;;;2.85;;
36573;SDS011;22578;42.668;23.232;2023-07-31T03:05:59;5.80;;;3.88;;
36573;SDS011;22578;42.668;23.232;2023-07-31T03:09:19;6.65;;;3.78;;
36573;SDS011;22578;42.668;23.232;2023-07-31T03:12:40;4.00;;;3.00;;
36573;SDS011;22578;42.668;23.232;2023-07-31T03:16:00;3.90;;;3.42;;
36573;SDS011;22578;42.668;23.232;2023-07-31T03:19:21;5.25;;;3.20;;
36573;SDS011;22578;42.668;23.232;2023-07-31T03:22:41;4.68;;;3.67;;
36573;SDS011;22578;42.668;23.232;2023-07-31T03:26:02;5.63;;;3.40;;
36573;SDS011;22578;42.668;23.232;2023-07-31T03:29:25;4.03;;;3.45;;
36573;SDS011;22578;42.668;23.232;2023-07-31T03:32:45;5.35;;;3.15;;
36573;SDS011;22578;42.668;23.232;2023-07-31T03:36:06;3.30;;;2.95;;
36573;SDS011;22578;42.668;23.232;2023-07-31T03:39:27;5.85;;;3.00;;
36573;SDS011;22578;42.668;23.232;2023-07-31T03:42:48;3.33;;;3.03;;
36573;SDS011;22578;42.668;23.232;2023-07-31T03:46:08;4.82;;;3.85;;
36573;SDS011;22578;42.668;23.232;2023-07-31T03:49:28;5.55;;;4.03;;
36573;SDS011;22578;42.668;23.232;2023-07-31T03:52:49;6.80;;;3.72;;
36573;SDS011;22578;42.668;23.232;2023-07-31T03:56:09;4.00;;;3.33;;
36573;SDS011;22578;42.668;23.232;2023-07-31T03:59:30;3.65;;;3.22;;
36573;SDS011;22578;42.668;23.232;2023-07-31T04:02:50;4.43;;;3.53;;
36573;SDS011;22578;42.668;23.232;2023-07-31T04:06:11;7.13;;;4.15;;
36573;SDS011;22578;42.668;23.232;2023-07-31T04:09:31;4.72;;;3.55;;
36573;SDS011;22578;42.668;23.232;2023-07-31T04:12:51;3.88;;;3.25;;
36573;SDS011;22578;42.668;23.232;2023-07-31T04:16:12;4.05;;;3.45;;
36573;SDS011;22578;42.668;23.232;2023-07-31T04:19:32;4.60;;;3.05;;
36573;SDS011;22578;42.668;23.232;2023-07-31T04:22:53;3.65;;;3.30;;
36573;SDS011;22578;42.668;23.232;2023-07-31T04:26:13;4.10;;;3.00;;
36573;SDS011;22578;42.668;23.232;2023-07-31T04:29:33;5.93;;;3.20;;
36573;SDS011;22578;42.668;23.232;2023-07-31T04:32:54;4.55;;;3.45;;
36573;SDS011;22578;42.668;23.232;2023-07-31T04:36:14;3.78;;;2.58;;
36573;SDS011;22578;42.668;23.232;2023-07-31T04:39:35;6.13;;;3.47;;
36573;SDS011;22578;42.668;23.232;2023-07-31T04:42:55;2.92;;;2.65;;
36573;SDS011;22578;42.668;23.232;2023-07-31T04:46:15;3.15;;;2.80;;
36573;SDS011;22578;42.668;23.232;2023-07-31T04:49:36;5.00;;;3.67;;
36573;SDS011;22578;42.668;23.232;2023-07-31T04:52:56;5.18;;;3.00;;
36573;SDS011;22578;42.668;23.232;2023-07-31T04:56:17;3.28;;;2.38;;
36573;SDS011;22578;42.668;23.232;2023-07-31T04:59:37;9.02;;;3.72;;
36573;SDS011;22578;42.668;23.232;2023-07-31T05:02:57;4.32;;;2.80;;
36573;SDS011;22578;42.668;23.232;2023-07-31T05:06:18;3.67;;;2.80;;
36573;SDS011;22578;42.668;23.232;2023-07-31T05:09:40;4.15;;;3.10;;
36573;SDS011;22578;42.668;23.232;2023-07-31T05:13:00;4.70;;;3.15;;
36573;SDS011;22578;42.668;23.232;2023-07-31T05:16:21;3.88;;;2.33;;
36573;SDS011;22578;42.668;23.232;2023-07-31T05:19:41;3.22;;;2.55;;
36573;SDS011;22578;42.668;23.232;2023-07-31T05:23:02;4.53;;;3.03;;
36573;SDS011;22578;42.668;23.232;2023-07-31T05:26:22;4.22;;;3.50;;
36573;SDS011;22578;42.668;23.232;2023-07-31T05:29:43;4.82;;;3.42;;
36573;SDS011;22578;42.668;23.232;2023-07-31T05:33:03;1.70;;;1.58;;
36573;SDS011;22578;42.668;23.232;2023-07-31T05:36:24;2.08;;;1.73;;
36573;SDS011;22578;42.668;23.232;2023-07-31T05:39:44;4.28;;;2.38;;
36573;SDS011;22578;42.668;23.232;2023-07-31T05:43:05;3.60;;;2.60;;
36573;SDS011;22578;42.668;23.232;2023-07-31T05:46:28;3.70;;;2.35;;
36573;SDS011;22578;42.668;23.232;2023-07-31T05:49:48;2.58;;;2.05;;
36573;SDS011;22578;42.668;23.232;2023-07-31T05:53:09;2.65;;;1.80;;
36573;SDS011;22578;42.668;23.232;2023-07-31T05:56:30;4.30;;;1.75;;
36573;SDS011;22578;42.668;23.232;2023-07-31T05:59:51;1.88;;;1.65;;
36573;SDS011;22578;42.668;23.232;2023-07-31T06:03:13;1.48;;;1.38;;
36573;SDS011;22578;42.668;23.232;2023-07-31T06:06:34;2.05;;;1.95;;
36573;SDS011;22578;42.668;23.232;2023-07-31T06:09:54;1.85;;;1.50;;
36573;SDS011;22578;42.668;23.232;2023-07-31T06:13:15;2.63;;;2.03;;
36573;SDS011;22578;42.668;23.232;2023-07-31T06:16:35;1.20;;;1.15;;
36573;SDS011;22578;42.668;23.232;2023-07-31T06:19:56;1.20;;;1.10;;
36573;SDS011;22578;42.668;23.232;2023-07-31T06:23:17;1.40;;;1.30;;
36573;SDS011;22578;42.668;23.232;2023-07-31T06:26:38;1.52;;;1.42;;
36573;SDS011;22578;42.668;23.232;2023-07-31T06:29:59;1.50;;;1.40;;
36573;SDS011;22578;42.668;23.232;2023-07-31T06:33:19;1.35;;;1.25;;
36573;SDS011;22578;42.668;23.232;2023-07-31T06:36:39;3.05;;;2.47;;
36573;SDS011;22578;42.668;23.232;2023-07-31T06:40:00;1.63;;;1.52;;
36573;SDS011;22578;42.668;23.232;2023-07-31T06:43:20;3.05;;;1.65;;
36573;SDS011;22578;42.668;23.232;2023-07-31T06:46:42;1.50;;;1.40;;
36573;SDS011;22578;42.668;23.232;2023-07-31T06:50:02;1.38;;;1.00;;
36573;SDS011;22578;42.668;23.232;2023-07-31T06:53:23;2.05;;;1.85;;
36573;SDS011;22578;42.668;23.232;2023-07-31T06:56:43;1.20;;;1.15;;
36573;SDS011;22578;42.668;23.232;2023-07-31T07:00:04;1.10;;;1.10;;
36573;SDS011;22578;42.668;23.232;2023-07-31T07:03:25;1.30;;;1.23;;
36573;SDS011;22578;42.668;23.232;2023-07-31T07:06:45;1.38;;;1.27;;
36573;SDS011;22578;42.668;23.232;2023-07-31T07:10:06;1.00;;;1.00;;
36573;SDS011;22578;42.668;23.232;2023-07-31T07:13:27;1.48;;;1.38;;
36573;SDS011;22578;42.668;23.232;2023-07-31T07:16:50;1.38;;;1.27;;
36573;SDS011;22578;42.668;23.232;2023-07-31T07:20:11;1.30;;;1.20;;
36573;SDS011;22578;42.668;23.232;2023-07-31T07:23:31;1.25;;;1.20;;
36573;SDS011;22578;42.668;23.232;2023-07-31T07:26:52;1.17;;;1.08;;
36573;SDS011;22578;42.668;23.232;2023-07-31T07:30:12;1.25;;;1.17;;
36573;SDS011;22578;42.668;23.232;2023-07-31T07:33:34;1.10;;;1.10;;
36573;SDS011;22578;42.668;23.232;2023-07-31T07:36:54;1.10;;;1.00;;
36573;SDS011;22578;42.668;23.232;2023-07-31T07:40:15;2.25;;;1.30;;
36573;SDS011;22578;42.668;23.232;2023-07-31T07:43:36;3.40;;;2.08;;
36573;SDS011;22578;42.668;23.232;2023-07-31T07:46:56;1.20;;;1.10;;
36573;SDS011;22578;42.668;23.232;2023-07-31T07:50:17;1.38;;;1.27;;
36573;SDS011;22578;42.668;23.232;2023-07-31T07:53:37;2.60;;;1.23;;
36573;SDS011;22578;42.668;23.232;2023-07-31T07:56:57;0.93;;;0.93;;
36573;SDS011;22578;42.668;23.232;2023-07-31T08:00:19;0.90;;;0.90;;
36573;SDS011;22578;42.668;23.232;2023-07-31T08:03:39;1.35;;;1.25;;
36573;SDS011;22578;42.668;23.232;2023-07-31T08:07:00;1.48;;;1.02;;
36573;SDS011;22578;42.668;23.232;2023-07-31T08:10:20;1.13;;;1.02;;
36573;SDS011;22578;42.668;23.232;2023-07-31T08:13:40;1.42;;;1.30;;
36573;SDS011;22578;42.668;23.232;2023-07-31T08:17:01;0.90;;;0.90;;
36573;SDS011;22578;42.668;23.232;2023-07-31T08:20:22;1.00;;;1.00;;
36573;SDS011;22578;42.668;23.232;2023-07-31T08:23:42;0.80;;;0.80;;
36573;SDS011;22578;42.668;23.232;2023-07-31T08:27:03;0.98;;;0.98;;
36573;SDS011;22578;42.668;23.232;2023-07-31T08:30:23;1.02;;;1.02;;
36573;SDS011;22578;42.668;23.232;2023-07-31T08:33:44;1.00;;;0.95;;
36573;SDS011;22578;42.668;23.232;2023-07-31T08:37:04;0.90;;;0.90;;
36573;SDS011;22578;42.668;23.232;2023-07-31T08:40:24;0.90;;;0.90;;
36573;SDS011;22578;42.668;23.232;2023-07-31T08:43:45;1.35;;;1.23;;
36573;SDS011;22578;42.668;23.232;2023-07-31T08:47:06;1.15;;;1.08;;
36573;SDS011;22578;42.668;23.232;2023-07-31T08:50:27;1.00;;;1.00;;
36573;SDS011;22578;42.668;23.232;2023-07-31T08:53:48;1.80;;;1.48;;
36573;SDS011;22578;42.668;23.232;2023-07-31T08:57:08;1.20;;;1.10;;
36573;SDS011;22578;42.668;23.232;2023-07-31T09:00:33;0.98;;;0.98;;
36573;SDS011;22578;42.668;23.232;2023-07-31T09:03:53;1.00;;;1.00;;
36573;SDS011;22578;42.668;23.232;2023-07-31T09:07:14;1.02;;;1.02;;
36573;SDS011;22578;42.668;23.232;2023-07-31T09:10:35;0.88;;;0.88;;
36573;SDS011;22578;42.668;23.232;2023-07-31T09:13:57;1.13;;;1.02;;
36573;SDS011;22578;42.668;23.232;2023-07-31T09:17:28;1.35;;;1.25;;
36573;SDS011;22578;42.668;23.232;2023-07-31T09:21:03;0.95;;;0.95;;
36573;SDS011;22578;42.668;23.232;2023-07-31T09:24:30;1.30;;;1.20;;
36573;SDS011;22578;42.668;23.232;2023-07-31T09:28:06;0.90;;;0.90;;
36573;SDS011;22578;42.668;23.232;2023-07-31T09:34:53;1.33;;;1.23;;
36573;SDS011;22578;42.668;23.232;2023-07-31T09:38:15;1.00;;;1.00;;
36573;SDS011;22578;42.668;23.232;2023-07-31T09:41:40;1.05;;;0.98;;
36573;SDS011;22578;42.668;23.232;2023-07-31T09:45:08;3.13;;;0.90;;
36573;SDS011;22578;42.668;23.232;2023-07-31T09:48:29;1.00;;;1.00;;
36573;SDS011;22578;42.668;23.232;2023-07-31T09:51:50;1.20;;;1.10;;
36573;SDS011;22578;42.668;23.232;2023-07-31T09:55:11;1.45;;;1.33;;
36573;SDS011;22578;42.668;23.232;2023-07-31T09:58:32;1.50;;;1.27;;
36573;SDS011;22578;42.668;23.232;2023-07-31T10:01:54;0.70;;;0.70;;
36573;SDS011;22578;42.668;23.232;2023-07-31T10:05:16;1.00;;;1.00;;
36573;SDS011;22578;42.668;23.232;2023-07-31T10:08:37;0.82;;;0.82;;
36573;SDS011;22578;42.668;23.232;2023-07-31T10:12:02;0.93;;;0.90;;
36573;SDS011;22578;42.668;23.232;2023-07-31T10:15:25;0.77;;;0.77;;
36573;SDS011;22578;42.668;23.232;2023-07-31T10:18:46;1.65;;;1.02;;
36573;SDS011;22578;42.668;23.232;2023-07-31T10:22:06;3.90;;;2.13;;
36573;SDS011;22578;42.668;23.232;2023-07-31T10:25:28;0.80;;;0.80;;
36573;SDS011;22578;42.668;23.232;2023-07-31T10:28:49;0.85;;;0.82;;
36573;SDS011;22578;42.668;23.232;2023-07-31T10:32:10;0.98;;;0.90;;
36573;SDS011;22578;42.668;23.232;2023-07-31T10:35:33;0.98;;;0.90;;
36573;SDS011;22578;42.668;23.232;2023-07-31T10:38:54;1.00;;;0.90;;
36573;SDS011;22578;42.668;23.232;2023-07-31T10:42:15;2.47;;;1.70;;
36573;SDS011;22578;42.668;23.232;2023-07-31T10:45:39;0.70;;;0.70;;
36573;SDS011;22578;42.668;23.232;2023-07-31T10:49:02;0.70;;;0.70;;
36573;SDS011;22578;42.668;23.232;2023-07-31T10:52:22;0.75;;;0.75;;
36573;SDS011;22578;42.668;23.232;2023-07-31T10:55:43;1.95;;;0.80;;
36573;SDS011;22578;42.668;23.232;2023-07-31T10:59:08;1.48;;;1.10;;
36573;SDS011;22578;42.668;23.232;2023-07-31T11:02:32;0.80;;;0.80;;
36573;SDS011;22578;42.668;23.232;2023-07-31T11:09:29;0.77;;;0.77;;
36573;SDS011;22578;42.668;23.232;2023-07-31T11:12:50;0.80;;;0.80;;
36573;SDS011;22578;42.668;23.232;2023-07-31T11:16:11;0.70;;;0.70;;
36573;SDS011;22578;42.668;23.232;2023-07-31T11:19:34;0.80;;;0.80;;
36573;SDS011;22578;42.668;23.232;2023-07-31T11:23:01;0.80;;;0.80;;
36573;SDS011;22578;42.668;23.232;2023-07-31T11:26:23;0.90;;;0.90;;
36573;SDS011;22578;42.668;23.232;2023-07-31T11:29:44;1.95;;;0.95;;
36573;SDS011;22578;42.668;23.232;2023-07-31T11:33:05;2.20;;;1.15;;
36573;SDS011;22578;42.668;23.232;2023-07-31T11:36:25;1.08;;;1.00;;
36573;SDS011;22578;42.668;23.232;2023-07-31T11:40:01;0.85;;;0.85;;
36573;SDS011;22578;42.668;23.232;2023-07-31T11:43:22;0.73;;;0.73;;
36573;SDS011;22578;42.668;23.232;2023-07-31T11:46:43;0.77;;;0.77;;
36573;SDS011;22578;42.668;23.232;2023-07-31T11:50:04;1.48;;;1.10;;
36573;SDS011;22578;42.668;23.232;2023-07-31T11:53:27;0.70;;;0.70;;
36573;SDS011;22578;42.668;23.232;2023-07-31T11:56:49;0.82;;;0.82;;
36573;SDS011;22578;42.668;23.232;2023-07-31T12:00:10;1.00;;;0.95;;
36573;SDS011;22578;42.668;23.232;2023-07-31T12:03:33;2.10;;;1.23;;
36573;SDS011;22578;42.668;23.232;2023-07-31T12:06:54;2.17;;;1.13;;
36573;SDS011;22578;42.668;23.232;2023-07-31T12:10:31;2.00;;;1.45;;
36573;SDS011;22578;42.668;23.232;2023-07-31T12:13:52;2.53;;;1.33;;
36573;SDS011;22578;42.668;23.232;2023-07-31T12:17:12;1.85;;;1.60;;
36573;SDS011;22578;42.668;23.232;2023-07-31T12:20:34;1.10;;;1.00;;
36573;SDS011;22578;42.668;23.232;2023-07-31T12:23:55;2.50;;;1.50;;
36573;SDS011;22578;42.668;23.232;2023-07-31T12:27:15;2.38;;;1.63;;
36573;SDS011;22578;42.668;23.232;2023-07-31T12:30:38;1.20;;;1.10;;
36573;SDS011;22578;42.668;23.232;2023-07-31T12:34:00;1.98;;;1.48;;
36573;SDS011;22578;42.668;23.232;2023-07-31T12:37:22;1.95;;;1.20;;
36573;SDS011;22578;42.668;23.232;2023-07-31T12:40:43;1.65;;;1.30;;
36573;SDS011;22578;42.668;23.232;2023-07-31T12:44:03;1.83;;;1.52;;
36573;SDS011;22578;42.668;23.232;2023-07-31T12:47:24;1.25;;;1.20;;
36573;SDS011;22578;42.668;23.232;2023-07-31T12:50:44;2.58;;;1.50;;
36573;SDS011;22578;42.668;23.232;2023-07-31T12:54:04;2.67;;;2.05;;
36573;SDS011;22578;42.668;23.232;2023-07-31T12:57:26;1.55;;;1.45;;
36573;SDS011;22578;42.668;23.232;2023-07-31T13:00:46;7.47;;;2.17;;
36573;SDS011;22578;42.668;23.232;2023-07-31T13:04:06;1.27;;;1.17;;
36573;SDS011;22578;42.668;23.232;2023-07-31T13:07:28;2.47;;;1.63;;
36573;SDS011;22578;42.668;23.232;2023-07-31T13:10:49;1.58;;;1.40;;
36573;SDS011;22578;42.668;23.232;2023-07-31T13:14:09;1.40;;;1.30;;
36573;SDS011;22578;42.668;23.232;2023-07-31T13:17:31;1.40;;;1.30;;
36573;SDS011;22578;42.668;23.232;2023-07-31T13:20:51;1.90;;;1.55;;
36573;SDS011;22578;42.668;23.232;2023-07-31T13:24:12;1.45;;;1.25;;
36573;SDS011;22578;42.668;23.232;2023-07-31T13:27:33;1.42;;;1.33;;
36573;SDS011;22578;42.668;23.232;2023-07-31T13:30:55;1.58;;;1.33;;
36573;SDS011;22578;42.668;23.232;2023-07-31T13:34:15;1.55;;;1.45;;
36573;SDS011;22578;42.668;23.232;2023-07-31T13:37:36;1.52;;;1.35;;
36573;SDS011;22578;42.668;23.232;2023-07-31T13:40:56;2.58;;;1.83;;
36573;SDS011;22578;42.668;23.232;2023-07-31T13:44:16;1.70;;;1.35;;
36573;SDS011;22578;42.668;23.232;2023-07-31T13:47:37;1.00;;;1.00;;
36573;SDS011;22578;42.668;23.232;2023-07-31T13:50:57;1.60;;;1.50;;
36573;SDS011;22578;42.668;23.232;2023-07-31T13:54:18;1.23;;;1.13;;
36573;SDS011;22578;42.668;23.232;2023-07-31T13:57:38;1.05;;;1.05;;
36573;SDS011;22578;42.668;23.232;2023-07-31T14:00:58;1.30;;;1.20;;
36573;SDS011;22578;42.668;23.232;2023-07-31T14:04:19;1.30;;;1.20;;
36573;SDS011;22578;42.668;23.232;2023-07-31T14:07:40;1.08;;;1.00;;
36573;SDS011;22578;42.668;23.232;2023-07-31T14:11:00;3.10;;;1.23;;
36573;SDS011;22578;42.668;23.232;2023-07-31T14:14:21;0.90;;;0.90;;
36573;SDS011;22578;42.668;23.232;2023-07-31T14:17:41;1.25;;;1.15;;
36573;SDS011;22578;42.668;23.232;2023-07-31T14:21:01;1.52;;;1.40;;
36573;SDS011;22578;42.668;23.232;2023-07-31T14:24:22;1.23;;;1.13;;
36573;SDS011;22578;42.668;23.232;2023-07-31T14:27:42;1.42;;;1.33;;
36573;SDS011;22578;42.668;23.232;2023-07-31T14:31:03;1.23;;;1.13;;
36573;SDS011;22578;42.668;23.232;2023-07-31T14:34:23;1.00;;;1.00;;
36573;SDS011;22578;42.668;23.232;2023-07-31T14:37:44;1.65;;;1.15;;
36573;SDS011;22578;42.668;23.232;2023-07-31T14:41:05;1.75;;;1.38;;
36573;SDS011;22578;42.668;23.232;2023-07-31T14:44:25;1.75;;;1.60;;
36573;SDS011;22578;42.668;23.232;2023-07-31T14:47:46;1.88;;;1.48;;
36573;SDS011;22578;42.668;23.232;2023-07-31T14:51:06;1.35;;;1.25;;
36573;SDS011;22578;42.668;23.232;2023-07-31T14:54:27;1.20;;;1.10;;
36573;SDS011;22578;42.668;23.232;2023-07-31T14:57:47;1.33;;;1.15;;
36573;SDS011;22578;42.668;23.232;2023-07-31T15:01:08;1.30;;;1.20;;
36573;SDS011;22578;42.668;23.232;2023-07-31T15:04:29;1.25;;;1.15;;
36573;SDS011;22578;42.668;23.232;2023-07-31T15:07:49;1.30;;;1.20;;
36573;SDS011;22578;42.668;23.232;2023-07-31T15:11:10;0.95;;;0.85;;
36573;SDS011;22578;42.668;23.232;2023-07-31T15:14:30;1.52;;;1.40;;
36573;SDS011;22578;42.668;23.232;2023-07-31T15:17:51;0.90;;;0.90;;
36573;SDS011;22578;42.668;23.232;2023-07-31T15:21:11;1.20;;;1.17;;
36573;SDS011;22578;42.668;23.232;2023-07-31T15:24:31;0.90;;;0.90;;
36573;SDS011;22578;42.668;23.232;2023-07-31T15:27:52;1.02;;;1.02;;
36573;SDS011;22578;42.668;23.232;2023-07-31T15:31:12;3.25;;;1.20;;
36573;SDS011;22578;42.668;23.232;2023-07-31T15:34:33;0.95;;;0.95;;
36573;SDS011;22578;42.668;23.232;2023-07-31T15:37:53;1.20;;;1.17;;
36573;SDS011;22578;42.668;23.232;2023-07-31T15:41:14;1.20;;;1.10;;
36573;SDS011;22578;42.668;23.232;2023-07-31T15:44:34;1.20;;;1.10;;
36573;SDS011;22578;42.668;23.232;2023-07-31T15:47:55;0.80;;;0.80;;
36573;SDS011;22578;42.668;23.232;2023-07-31T15:51:15;3.58;;;1.10;;
36573;SDS011;22578;42.668;23.232;2023-07-31T15:54:35;1.05;;;1.05;;
36573;SDS011;22578;42.668;23.232;2023-07-31T15:57:56;1.08;;;1.08;;
36573;SDS011;22578;42.668;23.232;2023-07-31T16:01:16;1.10;;;1.05;;
36573;SDS011;22578;42.668;23.232;2023-07-31T16:04:37;1.42;;;1.33;;
36573;SDS011;22578;42.668;23.232;2023-07-31T16:07:58;1.35;;;1.25;;
36573;SDS011;22578;42.668;23.232;2023-07-31T16:11:18;0.95;;;0.93;;
36573;SDS011;22578;42.668;23.232;2023-07-31T16:14:39;0.80;;;0.80;;
36573;SDS011;22578;42.668;23.232;2023-07-31T16:17:59;0.88;;;0.88;;
36573;SDS011;22578;42.668;23.232;2023-07-31T16:21:20;1.55;;;1.20;;
36573;SDS011;22578;42.668;23.232;2023-07-31T16:24:40;0.90;;;0.90;;
36573;SDS011;22578;42.668;23.232;2023-07-31T16:28:00;1.10;;;1.10;;
36573;SDS011;22578;42.668;23.232;2023-07-31T16:31:21;1.08;;;1.08;;
36573;SDS011;22578;42.668;23.232;2023-07-31T16:34:41;0.80;;;0.80;;
36573;SDS011;22578;42.668;23.232;2023-07-31T16:38:02;0.90;;;0.90;;
36573;SDS011;22578;42.668;23.232;2023-07-31T16:41:22;0.80;;;0.80;;
36573;SDS011;22578;42.668;23.232;2023-07-31T16:44:44;0.90;;;0.90;;
36573;SDS011;22578;42.668;23.232;2023-07-31T16:48:04;0.90;;;0.90;;
36573;SDS011;22578;42.668;23.232;2023-07-31T16:51:25;0.80;;;0.80;;
36573;SDS011;22578;42.668;23.232;2023-07-31T16:54:46;5.97;;;1.00;;
36573;SDS011;22578;42.668;23.232;2023-07-31T16:58:07;1.00;;;1.00;;
36573;SDS011;22578;42.668;23.232;2023-07-31T17:01:27;0.85;;;0.85;;
36573;SDS011;22578;42.668;23.232;2023-07-31T17:04:52;1.13;;;1.08;;
36573;SDS011;22578;42.668;23.232;2023-07-31T17:08:12;1.00;;;1.00;;
36573;SDS011;22578;42.668;23.232;2023-07-31T17:11:34;1.00;;;1.00;;
36573;SDS011;22578;42.668;23.232;2023-07-31T17:14:55;0.90;;;0.90;;
36573;SDS011;22578;42.668;23.232;2023-07-31T17:18:15;0.82;;;0.82;;
36573;SDS011;22578;42.668;23.232;2023-07-31T17:21:36;1.08;;;1.08;;
36573;SDS011;22578;42.668;23.232;2023-07-31T17:24:56;1.00;;;1.00;;
36573;SDS011;22578;42.668;23.232;2023-07-31T17:28:17;1.05;;;0.90;;
36573;SDS011;22578;42.668;23.232;2023-07-31T17:31:37;1.73;;;1.10;;
36573;SDS011;22578;42.668;23.232;2023-07-31T18:03:07;2.20;;;1.23;;
36573;SDS011;22578;42.668;23.232;2023-07-31T18:06:28;4.68;;;1.27;;
36573;SDS011;22578;42.668;23.232;2023-07-31T18:09:53;1.92;;;1.70;;
36573;SDS011;22578;42.668;23.232;2023-07-31T18:13:14;0.90;;;0.90;;
36573;SDS011;22578;42.668;23.232;2023-07-31T18:16:35;0.98;;;0.90;;
36573;SDS011;22578;42.668;23.232;2023-07-31T18:19:56;1.25;;;1.00;;
36573;SDS011;22578;42.668;23.232;2023-07-31T18:23:16;1.00;;;1.00;;
36573;SDS011;22578;42.668;23.232;2023-07-31T18:26:36;0.85;;;0.85;;
36573;SDS011;22578;42.668;23.232;2023-07-31T18:29:57;1.02;;;1.02;;
36573;SDS011;22578;42.668;23.232;2023-07-31T18:33:17;0.90;;;0.90;;
36573;SDS011;22578;42.668;23.232;2023-07-31T18:36:38;1.00;;;1.00;;
36573;SDS011;22578;42.668;23.232;2023-07-31T18:40:00;0.90;;;0.90;;
36573;SDS011;22578;42.668;23.232;2023-07-31T18:43:20;1.63;;;1.00;;
36573;SDS011;22578;42.668;23.232;2023-07-31T18:46:41;1.00;;;1.00;;
36573;SDS011;22578;42.668;23.232;2023-07-31T18:50:01;1.60;;;1.15;;
36573;SDS011;22578;42.668;23.232;2023-07-31T18:53:23;1.30;;;1.20;;
36573;SDS011;22578;42.668;23.232;2023-07-31T18:56:44;4.47;;;2.08;;
36573;SDS011;22578;42.668;23.232;2023-07-31T19:00:04;1.15;;;1.08;;
36573;SDS011;22578;42.668;23.232;2023-07-31T19:03:25;1.27;;;1.17;;
36573;SDS011;22578;42.668;23.232;2023-07-31T19:06:46;1.02;;;1.02;;
36573;SDS011;22578;42.668;23.232;2023-07-31T19:10:06;1.10;;;1.10;;
36573;SDS011;22578;42.668;23.232;2023-07-31T19:13:27;1.30;;;1.20;;
36573;SDS011;22578;42.668;23.232;2023-07-31T19:16:47;1.30;;;1.20;;
36573;SDS011;22578;42.668;23.232;2023-07-31T19:20:08;1.08;;;1.02;;
36573;SDS011;22578;42.668;23.232;2023-07-31T19:23:28;1.33;;;1.23;;
36573;SDS011;22578;42.668;23.232;2023-07-31T19:26:49;1.00;;;1.00;;
36573;SDS011;22578;42.668;23.232;2023-07-31T19:30:10;1.42;;;1.15;;
36573;SDS011;22578;42.668;23.232;2023-07-31T19:33:31;1.27;;;1.20;;
36573;SDS011;22578;42.668;23.232;2023-07-31T19:36:51;1.08;;;1.00;;
36573;SDS011;22578;42.668;23.232;2023-07-31T19:40:12;1.00;;;1.00;;
36573;SDS011;22578;42.668;23.232;2023-07-31T19:43:32;1.13;;;1.05;;
36573;SDS011;22578;42.668;23.232;2023-07-31T19:46:53;0.80;;;0.80;;
36573;SDS011;22578;42.668;23.232;2023-07-31T19:50:13;1.42;;;1.33;;
36573;SDS011;22578;42.668;23.232;2023-07-31T19:53:34;1.10;;;1.10;;
36573;SDS011;22578;42.668;23.232;2023-07-31T19:56:54;1.00;;;1.00;;
36573;SDS011;22578;42.668;23.232;2023-07-31T20:00:17;1.20;;;1.10;;
36573;SDS011;22578;42.668;23.232;2023-07-31T20:03:37;1.13;;;1.02;;
36573;SDS011;22578;42.668;23.232;2023-07-31T20:06:58;1.00;;;1.00;;
36573;SDS011;22578;42.668;23.232;2023-07-31T20:10:18;1.52;;;1.33;;
36573;SDS011;22578;42.668;23.232;2023-07-31T20:13:39;1.52;;;1.40;;
36573;SDS011;22578;42.668;23.232;2023-07-31T20:16:59;1.00;;;1.00;;
36573;SDS011;22578;42.668;23.232;2023-07-31T20:20:20;1.20;;;1.10;;
36573;SDS011;22578;42.668;23.232;2023-07-31T20:23:41;1.05;;;1.05;;
36573;SDS011;22578;42.668;23.232;2023-07-31T20:27:01;0.80;;;0.80;;
36573;SDS011;22578;42.668;23.232;2023-07-31T20:30:22;1.00;;;1.00;;
36573;SDS011;22578;42.668;23.232;2023-07-31T20:33:42;1.23;;;1.13;;